Boeing Field King County International Airport
KBFI : now visible

Airfield :











YOU CAN JOIN US ON...

 
LOGIN :

Register | Disclaimer

   EN    FR    IT 

 









Legend :    VFR   Marginal VFR   IFR   Intensive IFR   Very Intensive IFR
Visi :
Ceiling :
>= 8 km
>= 3000ft
5 to 8 km
1000 to 3000 ft
1500m to 5 km
500 to 1000 ft
800 to 1500m
200 to 500 ft
< 800m
< 200 ft
Symbols :   Thunderstorms  Fog  Heavy snow  Heavy precipitations  Wind > 20 kt






- Airport Elevation : 21 ft
- IATA code : BFI


KBFI - Boeing Field King County International

CURRENT METAR :
  • 272253Z 21005KT 10SM SCT020 BKN055 BKN070 13/12 A2978 RMK AO2 RAE39 SLP084 P0013 T01330122

EXPIRED METARs :
  • 272235Z 18007KT 10SM -RA FEW045 BKN055 OVC070 12/12 A2979 RMK AO2 P0013 T01220117
  • 272203Z 00000KT 2 1/2SM +RA BR SCT024 BKN038 OVC046 12/11 A2977 RMK AO2 P0006 T01170111
  • 272155Z VRB03KT 1SM +RA BR FEW013 SCT023 OVC033 12/11 A2978 RMK AO2 P0000 T01170111
  • 272147Z 25007G16KT 3/4SM +RA BR FEW015 BKN024 OVC036 12/11 A2978 RMK AO2 RAE04B27 P0013
  • 272141Z 26009G15KT 2 1/2SM RA BR FEW013 BKN024 OVC046 13/11 A2978 RMK AO2 RAE04B27 P0003 T01280106
  • 272053Z 18008KT 10SM -RA FEW014 BKN043 OVC055 14/12 A2978 RMK AO2 RAB09 SLP083 P0000 60000 T01440122 51003

TAF KBFI
Valid from the 27 at 22:00 until the 28 at 18:00 UTC


272145Z 2722/2818 24010KT 2SM RA BR SCT010 BKN020 OVC050
FM272300 21010KT P6SM VCSH SCT050 OVC060
FM280900 19012KT 5SM -SHRA BKN025 OVC035
FM281200 17011KT P6SM VCSH OVC015
KZSE FIR / North America



MET'MAP, your aeronautical weather chart ! - Copyright ORBIFLY December 2007 - Disclaimer

ORBIFLY MET'MAP TEAM :

Programming & Development : Alexandra Zaïnal
Concept & original design : Baudouin d'Aumeries
Assistance for programming : Marc-Olivier Méhu
Technical & hardware support : Manuel Goepfert

Contact : metmap@orbifly.com




SOURCES & CREDITS :

   NOAA       Earth
Advisory